createdAt,value
2023-04-27T00:01:18.686Z,2.50
2023-04-27T00:03:45.858Z,2.45
2023-04-27T00:06:12.749Z,2.55
2023-04-27T00:08:39.496Z,2.60
2023-04-27T00:11:06.514Z,2.47
2023-04-27T00:13:33.106Z,2.80
2023-04-27T00:16:03.430Z,2.30
2023-04-27T00:18:33.133Z,2.38
2023-04-27T00:20:59.790Z,2.20
2023-04-27T00:23:26.782Z,2.15
2023-04-27T00:25:53.642Z,2.42
2023-04-27T00:28:20.471Z,2.47
2023-04-27T00:30:48.606Z,2.70
2023-04-27T00:33:16.827Z,2.20
2023-04-27T00:35:43.475Z,3.08
2023-04-27T00:38:10.048Z,2.60
2023-04-27T00:40:37.110Z,2.90
2023-04-27T00:43:04.026Z,2.20
2023-04-27T00:45:30.823Z,2.65
2023-04-27T00:47:58.356Z,2.38
2023-04-27T00:50:29.711Z,2.78
2023-04-27T00:52:56.852Z,2.45
2023-04-27T00:55:24.348Z,2.40
2023-04-27T00:57:50.951Z,2.40
2023-04-27T01:00:17.932Z,2.50
2023-04-27T01:02:44.703Z,2.65
2023-04-27T01:05:12.441Z,2.63
2023-04-27T01:07:40.257Z,2.42
2023-04-27T01:10:08.432Z,2.33
2023-04-27T01:12:35.290Z,2.22
2023-04-27T01:15:02.015Z,2.38
2023-04-27T01:17:28.680Z,2.22
2023-04-27T01:19:56.633Z,2.28
2023-04-27T01:22:23.319Z,2.08
2023-04-27T01:24:49.941Z,3.08
2023-04-27T01:27:16.538Z,2.67
2023-04-27T01:29:44.460Z,2.53
2023-04-27T01:32:12.347Z,2.33
2023-04-27T01:34:38.990Z,2.88
2023-04-27T01:37:05.752Z,2.50
2023-04-27T01:39:32.626Z,2.63
2023-04-27T01:41:59.212Z,2.20
2023-04-27T01:44:26.034Z,2.50
2023-04-27T01:46:52.663Z,2.50
2023-04-27T01:49:19.386Z,2.70
2023-04-27T01:51:46.012Z,2.50
2023-04-27T01:54:12.936Z,2.30
2023-04-27T01:56:39.626Z,2.22
2023-04-27T01:59:06.232Z,2.60
2023-04-27T02:01:32.885Z,2.60
2023-04-27T02:04:08.280Z,2.65
2023-04-27T02:06:35.178Z,2.45
2023-04-27T02:09:01.850Z,2.22
2023-04-27T02:11:28.453Z,3.10
2023-04-27T02:13:55.192Z,2.70
2023-04-27T02:16:21.922Z,4.72
2023-04-27T02:18:49.142Z,2.35
2023-04-27T02:21:16.034Z,2.67
2023-04-27T02:23:42.792Z,2.70
2023-04-27T02:26:20.293Z,2.70
2023-04-27T02:28:47.920Z,2.33
2023-04-27T02:31:15.165Z,2.92
2023-04-27T02:33:42.088Z,2.60
2023-04-27T02:36:09.205Z,2.42
2023-04-27T02:38:35.920Z,2.50
2023-04-27T02:41:02.646Z,2.70
2023-04-27T02:43:29.255Z,2.60
2023-04-27T02:45:55.893Z,2.70
2023-04-27T02:48:22.488Z,3.05
2023-04-27T02:50:49.050Z,2.75
2023-04-27T02:53:15.731Z,2.60
2023-04-27T02:55:49.333Z,2.70
2023-04-27T02:58:16.947Z,2.85
2023-04-27T03:00:43.911Z,2.75
2023-04-27T03:03:10.687Z,2.78
2023-04-27T03:05:38.017Z,2.50
2023-04-27T03:08:05.077Z,2.70
2023-04-27T03:10:31.710Z,2.90
2023-04-27T03:12:58.291Z,2.80
2023-04-27T03:15:24.962Z,3.20
2023-04-27T03:17:51.574Z,3.15
2023-04-27T03:20:18.296Z,2.97
2023-04-27T03:22:45.760Z,2.70
2023-04-27T03:25:12.492Z,3.22
2023-04-27T03:27:39.220Z,2.83
2023-04-27T03:30:07.104Z,3.00
2023-04-27T03:32:33.736Z,3.42
2023-04-27T03:35:06.968Z,2.65
2023-04-27T03:37:34.781Z,2.80
2023-04-27T03:40:01.382Z,3.38
2023-04-27T03:42:28.890Z,4.22
2023-04-27T03:44:55.552Z,4.55
2023-04-27T03:47:22.655Z,3.53
2023-04-27T03:49:49.282Z,3.40
2023-04-27T03:52:15.886Z,2.90
2023-04-27T03:54:42.477Z,3.25
2023-04-27T03:57:09.069Z,3.42
2023-04-27T03:59:35.814Z,3.40
2023-04-27T04:02:03.922Z,3.28
2023-04-27T04:04:31.170Z,3.30
2023-04-27T04:06:57.915Z,3.10
2023-04-27T04:09:24.850Z,3.45
2023-04-27T04:11:54.471Z,3.90
2023-04-27T04:14:21.043Z,3.30
2023-04-27T04:16:47.677Z,3.17
2023-04-27T04:19:14.694Z,3.20
2023-04-27T04:21:42.261Z,3.17
2023-04-27T04:24:10.234Z,3.30
2023-04-27T04:26:38.569Z,3.08
2023-04-27T04:29:07.532Z,3.30
2023-04-27T04:31:35.080Z,2.95
2023-04-27T04:34:02.241Z,3.05
2023-04-27T04:36:28.930Z,2.92
2023-04-27T04:38:57.011Z,3.40
2023-04-27T04:41:23.746Z,3.20
2023-04-27T04:43:50.665Z,3.00
2023-04-27T04:46:17.491Z,3.45
2023-04-27T04:48:44.155Z,3.33
2023-04-27T04:51:10.775Z,3.33
2023-04-27T04:53:37.879Z,3.63
2023-04-27T04:56:12.810Z,3.60
2023-04-27T04:58:40.096Z,3.40
2023-04-27T05:01:06.980Z,3.47
2023-04-27T05:03:33.994Z,3.38
2023-04-27T05:06:00.806Z,3.60
2023-04-27T05:08:27.709Z,3.25
2023-04-27T05:10:54.997Z,3.72
2023-04-27T05:13:22.458Z,3.58
2023-04-27T05:15:49.754Z,3.80
2023-04-27T05:18:18.241Z,4.10
2023-04-27T05:20:45.299Z,3.47
2023-04-27T05:23:12.171Z,3.67
2023-04-27T05:25:41.613Z,3.75
2023-04-27T05:28:09.861Z,3.88
2023-04-27T05:30:37.109Z,4.50
2023-04-27T05:33:05.970Z,4.13
2023-04-27T05:35:33.556Z,4.43
2023-04-27T05:38:01.131Z,4.40
2023-04-27T05:40:27.997Z,4.40
2023-04-27T05:42:54.852Z,3.78
2023-04-27T05:45:21.705Z,3.88
2023-04-27T05:47:48.666Z,4.13
2023-04-27T05:50:15.392Z,4.35
2023-04-27T05:52:42.062Z,5.03
2023-04-27T05:55:09.117Z,4.60
2023-04-27T05:57:35.749Z,4.28
2023-04-27T06:00:08.453Z,3.60
2023-04-27T06:02:35.186Z,3.90
2023-04-27T06:05:01.958Z,3.70
2023-04-27T06:07:28.670Z,3.80
2023-04-27T06:09:55.293Z,3.72
2023-04-27T06:12:21.863Z,3.08
2023-04-27T06:14:48.475Z,3.40
2023-04-27T06:17:15.175Z,3.17
2023-04-27T06:19:43.799Z,3.30
2023-04-27T06:22:11.533Z,3.38
2023-04-27T06:24:38.430Z,3.13
2023-04-27T06:27:05.508Z,3.60
2023-04-27T06:29:32.142Z,3.25
2023-04-27T06:31:58.784Z,3.10
2023-04-27T06:34:25.532Z,3.78
2023-04-27T06:36:52.107Z,3.40
2023-04-27T06:39:18.705Z,3.25
2023-04-27T06:41:45.564Z,3.05
2023-04-27T06:44:12.197Z,3.22
2023-04-27T06:46:39.119Z,2.90
2023-04-27T06:49:06.766Z,3.28
2023-04-27T06:51:33.453Z,2.80
2023-04-27T06:54:00.025Z,3.47
2023-04-27T06:56:26.602Z,3.42
2023-04-27T06:58:53.275Z,2.63
2023-04-27T07:01:19.919Z,3.17
2023-04-27T07:03:46.880Z,3.33
2023-04-27T07:06:13.582Z,3.03
2023-04-27T07:08:40.833Z,3.22
2023-04-27T07:11:07.452Z,3.05
2023-04-27T07:13:34.069Z,3.00
2023-04-27T07:16:01.129Z,3.03
2023-04-27T07:18:28.195Z,2.95
2023-04-27T07:20:57.752Z,2.90
2023-04-27T07:23:24.640Z,3.00
2023-04-27T07:25:51.822Z,3.25
2023-04-27T07:28:18.535Z,2.97
2023-04-27T07:30:45.602Z,2.83
2023-04-27T07:33:13.112Z,3.70
2023-04-27T07:35:39.702Z,2.95
2023-04-27T07:38:07.482Z,3.38
2023-04-27T07:40:34.377Z,3.25
2023-04-27T07:43:01.192Z,2.72
2023-04-27T07:45:31.932Z,2.85
2023-04-27T07:48:00.388Z,3.10
2023-04-27T07:50:31.600Z,3.13
2023-04-27T07:52:58.953Z,2.92
2023-04-27T07:55:26.658Z,2.95
2023-04-27T07:57:54.737Z,3.05
2023-04-27T08:00:22.208Z,2.92
2023-04-27T08:02:50.249Z,3.25
2023-04-27T08:05:17.671Z,2.78
2023-04-27T08:07:45.429Z,3.92
2023-04-27T08:10:12.678Z,3.28
2023-04-27T08:12:39.273Z,3.47
2023-04-27T08:15:07.424Z,2.92
2023-04-27T08:17:34.985Z,2.70
2023-04-27T08:20:01.721Z,3.33
2023-04-27T08:22:28.332Z,3.53
2023-04-27T08:24:54.902Z,2.80
2023-04-27T08:27:21.493Z,2.65
2023-04-27T08:29:49.389Z,2.95
2023-04-27T08:32:16.266Z,2.35
2023-04-27T08:34:44.765Z,2.50
2023-04-27T08:37:11.528Z,2.30
2023-04-27T08:39:38.204Z,2.47
2023-04-27T08:42:14.750Z,2.47
2023-04-27T08:44:43.011Z,2.97
2023-04-27T08:47:10.716Z,3.08
2023-04-27T08:49:43.642Z,2.60
2023-04-27T08:52:14.943Z,2.50
2023-04-27T08:54:41.693Z,2.60
2023-04-27T08:57:13.049Z,2.50
2023-04-27T08:59:40.804Z,2.35
2023-04-27T09:02:19.946Z,2.22
2023-04-27T09:04:46.752Z,2.20
2023-04-27T09:07:17.565Z,2.25
2023-04-27T09:09:45.393Z,2.45
2023-04-27T09:12:21.143Z,2.15
2023-04-27T09:15:01.170Z,2.55
2023-04-27T09:17:30.074Z,2.58
2023-04-27T09:20:12.696Z,2.65
2023-04-27T09:22:55.373Z,2.30
2023-04-27T09:25:31.152Z,2.50
2023-04-27T09:27:59.915Z,2.90
2023-04-27T09:30:28.016Z,2.50
2023-04-27T09:33:03.806Z,3.08
2023-04-27T09:35:33.629Z,2.45
2023-04-27T09:38:01.060Z,2.22
2023-04-27T09:40:30.878Z,2.92
2023-04-27T09:43:02.865Z,2.45
2023-04-27T09:45:31.164Z,2.75
2023-04-27T09:47:58.692Z,3.15
2023-04-27T09:50:25.787Z,3.05
2023-04-27T09:52:52.385Z,2.70
2023-04-27T09:55:27.039Z,2.47
2023-04-27T09:58:22.303Z,2.67
2023-04-27T10:01:26.162Z,2.15
2023-04-27T10:04:29.909Z,3.97
2023-04-27T10:07:05.064Z,3.25
2023-04-27T10:09:41.957Z,2.53
2023-04-27T10:12:38.042Z,3.22
2023-04-27T10:15:16.849Z,3.65
2023-04-27T10:17:52.937Z,3.80
2023-04-27T10:20:30.744Z,3.20
2023-04-27T10:22:59.005Z,3.58
2023-04-27T10:25:41.888Z,6.28
2023-04-27T10:28:15.758Z,3.08
2023-04-27T10:30:48.295Z,3.47
2023-04-27T10:33:22.388Z,3.25
2023-04-27T10:36:00.202Z,4.00
2023-04-27T10:38:31.364Z,3.33
2023-04-27T10:41:02.644Z,3.22
2023-04-27T10:43:33.663Z,3.65
2023-04-27T10:46:14.343Z,3.25
2023-04-27T10:48:43.308Z,3.30
2023-04-27T10:51:10.415Z,6.00
2023-04-27T10:53:37.919Z,3.80
2023-04-27T10:56:08.535Z,3.35
2023-04-27T10:58:48.358Z,4.25
2023-04-27T11:01:27.213Z,3.30
2023-04-27T11:03:58.850Z,2.88
2023-04-27T11:06:27.967Z,3.40
2023-04-27T11:08:54.725Z,3.30
2023-04-27T11:11:22.481Z,3.08
2023-04-27T11:13:50.361Z,3.38
2023-04-27T11:16:19.173Z,3.00
2023-04-27T11:18:46.055Z,3.60
2023-04-27T11:21:18.866Z,3.03
2023-04-27T11:23:45.685Z,2.97
2023-04-27T11:26:21.561Z,3.50
2023-04-27T11:29:14.036Z,3.35
2023-04-27T11:31:49.145Z,3.00
2023-04-27T11:34:24.371Z,3.72
2023-04-27T11:37:17.399Z,3.20
2023-04-27T11:39:45.634Z,3.55
2023-04-27T11:42:20.718Z,3.25
2023-04-27T11:44:59.619Z,2.95
2023-04-27T11:47:29.565Z,2.90
2023-04-27T11:50:02.077Z,3.60
2023-04-27T11:52:42.211Z,2.72
2023-04-27T11:55:15.610Z,3.13
2023-04-27T11:57:43.005Z,3.13
2023-04-27T12:00:14.497Z,3.13
2023-04-27T12:02:43.992Z,3.28
2023-04-27T12:05:13.213Z,3.78
2023-04-27T12:07:41.156Z,3.53
2023-04-27T12:10:08.896Z,4.35
2023-04-27T12:12:35.884Z,3.42
2023-04-27T12:15:03.207Z,4.05
2023-04-27T12:17:36.424Z,2.95
2023-04-27T12:20:03.981Z,3.45
2023-04-27T12:22:30.585Z,3.10
2023-04-27T12:24:57.458Z,3.78
2023-04-27T12:27:24.107Z,3.70
2023-04-27T12:29:50.818Z,3.67
2023-04-27T12:32:17.476Z,3.17
2023-04-27T12:34:44.168Z,3.55
2023-04-27T12:37:10.974Z,3.67
2023-04-27T12:39:37.907Z,3.80
2023-04-27T12:42:04.933Z,4.45
2023-04-27T12:44:32.152Z,4.13
2023-04-27T12:46:58.744Z,4.07
2023-04-27T12:49:25.412Z,3.20
2023-04-27T12:51:53.850Z,3.80
2023-04-27T12:54:20.712Z,3.70
2023-04-27T12:56:47.374Z,3.58
2023-04-27T12:59:14.184Z,3.70
2023-04-27T13:01:40.892Z,3.88
2023-04-27T13:04:07.988Z,4.53
2023-04-27T13:06:34.880Z,4.55
2023-04-27T13:09:02.467Z,4.20
2023-04-27T13:11:29.566Z,4.15
2023-04-27T13:13:56.298Z,4.15
2023-04-27T13:16:25.198Z,4.13
2023-04-27T13:18:53.142Z,4.13
2023-04-27T13:21:20.283Z,4.07
2023-04-27T13:23:47.804Z,3.70
2023-04-27T13:26:15.564Z,4.25
2023-04-27T13:28:42.594Z,3.80
2023-04-27T13:31:09.286Z,3.38
2023-04-27T13:33:41.956Z,3.70
2023-04-27T13:36:12.925Z,3.58
2023-04-27T13:38:39.827Z,3.80
2023-04-27T13:41:06.820Z,3.60
2023-04-27T13:43:33.545Z,4.35
2023-04-27T13:46:01.718Z,3.13
2023-04-27T13:48:30.043Z,3.90
2023-04-27T13:50:56.956Z,3.63
2023-04-27T13:53:27.580Z,3.15
2023-04-27T13:55:55.893Z,3.58
2023-04-27T13:58:25.590Z,3.30
2023-04-27T14:00:53.311Z,3.22
2023-04-27T14:03:20.515Z,3.47
2023-04-27T14:05:48.798Z,3.55
2023-04-27T14:08:15.770Z,3.67
2023-04-27T14:10:42.887Z,3.30
2023-04-27T14:13:09.554Z,3.22
2023-04-27T14:15:37.307Z,3.53
2023-04-27T14:18:08.805Z,3.10
2023-04-27T14:20:37.473Z,4.05
2023-04-27T14:23:06.197Z,3.85
2023-04-27T14:25:34.576Z,4.32
2023-04-27T14:28:04.306Z,4.00
2023-04-27T14:30:32.581Z,5.63
2023-04-27T14:32:59.312Z,5.93
2023-04-27T14:35:27.348Z,5.47
2023-04-27T14:37:54.023Z,5.60
2023-04-27T14:40:20.887Z,5.57
2023-04-27T14:42:47.466Z,5.07
2023-04-27T14:45:15.792Z,5.68
2023-04-27T14:47:42.558Z,6.13
2023-04-27T14:50:11.406Z,5.82
2023-04-27T14:52:38.642Z,5.03
2023-04-27T14:55:06.661Z,5.20
2023-04-27T14:57:36.009Z,5.03
2023-04-27T15:00:09.386Z,5.00
2023-04-27T15:02:37.820Z,4.40
2023-04-27T15:05:06.190Z,4.07
2023-04-27T15:07:33.079Z,3.90
2023-04-27T15:09:59.688Z,4.30
2023-04-27T15:12:26.541Z,3.88
2023-04-27T15:14:53.787Z,5.18
2023-04-27T15:17:21.220Z,4.35
2023-04-27T15:19:48.081Z,4.25
2023-04-27T15:22:14.812Z,4.47
2023-04-27T15:24:41.477Z,4.97
2023-04-27T15:27:09.761Z,4.07
2023-04-27T15:29:37.350Z,4.40
2023-04-27T15:32:04.288Z,4.03
2023-04-27T15:34:31.032Z,4.05
2023-04-27T15:36:57.715Z,4.70
2023-04-27T15:39:24.352Z,4.38
2023-04-27T15:41:50.998Z,5.15
2023-04-27T15:44:17.628Z,3.88
2023-04-27T15:46:44.354Z,5.18
2023-04-27T15:49:12.369Z,3.83
2023-04-27T15:51:39.232Z,3.70
2023-04-27T15:54:06.155Z,3.55
2023-04-27T15:56:32.869Z,3.60
2023-04-27T15:58:59.451Z,3.53
2023-04-27T16:01:26.366Z,3.70
2023-04-27T16:03:53.205Z,5.50
2023-04-27T16:06:20.107Z,5.30
2023-04-27T16:08:46.753Z,7.43
2023-04-27T16:11:14.028Z,5.15
2023-04-27T16:13:40.860Z,4.05
2023-04-27T16:16:08.554Z,7.28
2023-04-27T16:18:35.845Z,6.35
2023-04-27T16:21:03.429Z,4.88
2023-04-27T16:23:30.080Z,4.97
2023-04-27T16:25:56.665Z,4.43
2023-04-27T16:28:23.303Z,4.00
2023-04-27T16:30:50.013Z,4.45
2023-04-27T16:33:18.344Z,4.35
2023-04-27T16:35:45.174Z,4.40
2023-04-27T16:38:11.809Z,4.55
2023-04-27T16:40:38.449Z,4.57
2023-04-27T16:43:05.063Z,4.13
2023-04-27T16:45:33.285Z,4.05
2023-04-27T16:48:02.253Z,4.13
2023-04-27T16:50:31.401Z,4.45
2023-04-27T16:53:10.721Z,4.20
2023-04-27T16:55:37.438Z,5.20
2023-04-27T16:58:04.080Z,4.05
2023-04-27T17:00:31.163Z,4.35
2023-04-27T17:02:57.814Z,4.28
2023-04-27T17:05:24.909Z,3.90
2023-04-27T17:07:51.556Z,4.20
2023-04-27T17:10:18.630Z,4.32
2023-04-27T17:12:45.244Z,4.30
2023-04-27T17:15:12.169Z,4.55
2023-04-27T17:17:38.928Z,3.97
2023-04-27T17:20:07.554Z,3.80
2023-04-27T17:22:34.160Z,4.32
2023-04-27T17:25:00.731Z,4.13
2023-04-27T17:27:27.328Z,4.57
2023-04-27T17:29:54.683Z,4.13
2023-04-27T17:32:22.509Z,4.78
2023-04-27T17:34:49.182Z,4.50
2023-04-27T17:37:15.783Z,4.38
2023-04-27T17:39:42.388Z,4.03
2023-04-27T17:42:12.095Z,4.38
2023-04-27T17:44:41.374Z,4.35
2023-04-27T17:47:08.708Z,4.00
2023-04-27T17:49:35.765Z,4.50
2023-04-27T17:52:02.694Z,4.25
2023-04-27T17:54:30.175Z,4.18
2023-04-27T17:56:57.206Z,4.00
2023-04-27T17:59:24.808Z,4.63
2023-04-27T18:01:51.935Z,4.55
2023-04-27T18:04:18.660Z,4.70
2023-04-27T18:06:45.452Z,4.05
2023-04-27T18:09:12.610Z,4.63
2023-04-27T18:11:39.422Z,4.43
2023-04-27T18:14:06.039Z,4.20
2023-04-27T18:16:32.803Z,4.30
2023-04-27T18:18:59.565Z,4.13
2023-04-27T18:21:28.145Z,3.75
2023-04-27T18:23:54.786Z,3.88
2023-04-27T18:26:22.176Z,4.20
2023-04-27T18:28:48.847Z,4.38
2023-04-27T18:31:19.202Z,4.15
2023-04-27T18:33:46.870Z,4.18
2023-04-27T18:36:19.559Z,4.15
2023-04-27T18:38:48.055Z,4.70
2023-04-27T18:41:15.078Z,4.32
2023-04-27T18:43:42.526Z,4.15
2023-04-27T18:46:09.168Z,4.28
2023-04-27T18:48:36.017Z,4.28
2023-04-27T18:51:02.656Z,3.72
2023-04-27T18:53:29.289Z,3.70
2023-04-27T18:55:55.962Z,3.30
2023-04-27T18:58:23.043Z,3.47
2023-04-27T19:00:49.720Z,3.72
2023-04-27T19:03:16.685Z,3.00
2023-04-27T19:05:43.754Z,3.53
2023-04-27T19:08:10.526Z,3.00
2023-04-27T19:10:37.390Z,3.15
2023-04-27T19:13:04.095Z,2.97
2023-04-27T19:15:30.904Z,3.42
2023-04-27T19:18:06.603Z,3.03
2023-04-27T19:20:37.152Z,3.25
2023-04-27T19:23:04.979Z,3.22
2023-04-27T19:25:31.588Z,2.92
2023-04-27T19:27:58.546Z,3.35
2023-04-27T19:30:25.275Z,2.80
2023-04-27T19:32:51.932Z,3.00
2023-04-27T19:35:20.134Z,2.72
2023-04-27T19:37:46.739Z,3.60
2023-04-27T19:40:13.645Z,3.78
2023-04-27T19:42:40.349Z,2.60
2023-04-27T19:45:07.668Z,2.50
2023-04-27T19:47:34.330Z,2.40
2023-04-27T19:50:04.669Z,2.33
2023-04-27T19:52:31.294Z,2.65
2023-04-27T19:54:58.164Z,2.58
2023-04-27T19:57:24.804Z,2.50
2023-04-27T19:59:51.513Z,2.97
2023-04-27T20:02:18.201Z,2.88
2023-04-27T20:04:45.090Z,2.50
2023-04-27T20:07:12.064Z,2.20
2023-04-27T20:09:38.772Z,2.72
2023-04-27T20:12:05.704Z,2.22
2023-04-27T20:14:38.432Z,2.40
2023-04-27T20:17:06.410Z,2.10
2023-04-27T20:19:33.800Z,2.30
2023-04-27T20:22:02.782Z,2.25
2023-04-27T20:24:29.713Z,2.40
2023-04-27T20:26:56.371Z,2.47
2023-04-27T20:29:23.166Z,2.30
2023-04-27T20:31:49.782Z,2.22
2023-04-27T20:34:16.654Z,1.90
2023-04-27T20:36:44.217Z,2.40
2023-04-27T20:39:11.899Z,2.60
2023-04-27T20:41:41.650Z,2.30
2023-04-27T20:44:09.172Z,2.00
2023-04-27T20:46:36.490Z,2.50
2023-04-27T20:49:04.358Z,2.70
2023-04-27T20:51:32.712Z,2.42
2023-04-27T20:53:59.754Z,2.50
2023-04-27T20:56:26.493Z,2.20
2023-04-27T20:58:53.524Z,2.42
2023-04-27T21:01:21.303Z,2.20
2023-04-27T21:03:48.138Z,2.40
2023-04-27T21:06:15.208Z,2.08
2023-04-27T21:08:42.674Z,2.40
2023-04-27T21:11:10.006Z,2.30
2023-04-27T21:13:37.855Z,2.40
2023-04-27T21:16:04.837Z,2.50
2023-04-27T21:18:31.596Z,2.30
2023-04-27T21:20:58.540Z,2.00
2023-04-27T21:23:25.297Z,2.03
2023-04-27T21:25:51.889Z,2.25
2023-04-27T21:28:19.930Z,2.53
2023-04-27T21:30:46.848Z,2.30
2023-04-27T21:33:13.601Z,2.42
2023-04-27T21:35:40.517Z,2.47
2023-04-27T21:38:07.159Z,2.40
2023-04-27T21:40:33.773Z,2.10
2023-04-27T21:43:01.022Z,2.00
2023-04-27T21:45:27.706Z,2.00
2023-04-27T21:47:54.345Z,2.22
2023-04-27T21:50:21.116Z,2.15
2023-04-27T21:52:47.728Z,2.20
2023-04-27T21:55:14.509Z,2.20
2023-04-27T21:57:41.130Z,2.25
2023-04-27T22:00:14.555Z,1.80
2023-04-27T22:02:44.677Z,2.08
2023-04-27T22:05:11.703Z,2.00
2023-04-27T22:07:38.614Z,2.40
2023-04-27T22:10:06.122Z,2.13
2023-04-27T22:12:33.324Z,1.90
2023-04-27T22:15:00.332Z,2.17
2023-04-27T22:17:27.610Z,2.63
2023-04-27T22:19:54.650Z,2.17
2023-04-27T22:22:21.340Z,2.10
2023-04-27T22:24:47.945Z,2.22
2023-04-27T22:27:14.596Z,1.92
2023-04-27T22:29:41.158Z,2.10
2023-04-27T22:32:07.984Z,2.03
2023-04-27T22:34:34.805Z,2.17
2023-04-27T22:37:02.233Z,2.00
2023-04-27T22:39:30.455Z,2.20
2023-04-27T22:41:57.064Z,2.33
2023-04-27T22:44:23.695Z,2.00
2023-04-27T22:46:50.793Z,2.10
2023-04-27T22:49:17.974Z,2.15
2023-04-27T22:51:46.911Z,2.30
2023-04-27T22:54:13.602Z,2.28
2023-04-27T22:56:40.948Z,2.08
2023-04-27T22:59:07.585Z,2.58
2023-04-27T23:01:35.944Z,2.10
2023-04-27T23:04:02.807Z,2.00
2023-04-27T23:06:30.186Z,2.03
2023-04-27T23:08:57.115Z,2.40
2023-04-27T23:11:23.822Z,2.15
2023-04-27T23:13:50.562Z,1.90
2023-04-27T23:16:17.407Z,2.28
2023-04-27T23:18:44.232Z,2.08
2023-04-27T23:21:11.486Z,2.30
2023-04-27T23:23:38.265Z,1.90
2023-04-27T23:26:14.695Z,2.03
2023-04-27T23:28:41.556Z,1.90
2023-04-27T23:31:08.882Z,2.10
2023-04-27T23:33:35.669Z,2.08
2023-04-27T23:36:02.667Z,1.90
2023-04-27T23:38:29.360Z,2.03
2023-04-27T23:40:55.995Z,2.10
2023-04-27T23:43:22.709Z,2.30
2023-04-27T23:45:53.280Z,2.13
2023-04-27T23:48:20.064Z,2.20
2023-04-27T23:50:46.722Z,2.03
2023-04-27T23:53:13.359Z,2.13
2023-04-27T23:55:40.104Z,2.25
2023-04-27T23:58:06.741Z,2.00
